Accueil
METAR-TAF:

METAR-TAF

Aéroports :

Waterville Robert LaFleur Airport

Waterville, Maine, États-Unis

latitude: 44-32N, longitude: 069-41W, altitude: 101 m

Observation

Le bulletin a été fait il y a 24 minutes, à 03:32 UTC
Vent 9 kt de nord/nord-est
Température -3°C
Humidité 93%
Pression 1018 hPa
Visibilité: 4.8 km
Nuages fragmentés à une hauteur de 800 ft
Ciel couvert à une hauteur de 2500 ft
neige faible, brume

METAR: KWVL 120332Z AUTO 03009KT 3SM -SN BR BKN008 OVC025 M03/M04 A3007 RMK AO2 CIG 006V012 P0001 FZRANO

Heure: 22:56 (03:56 UTC)


TAF: absent

Observations et prévisions météorologiques de plus de 4000 aéroports (messages METAR et TAF).

Les stations disponibles sont représentées par des disques jaunes et rouges sur la carte.

Passer la souris dessus pour voir le nom de la station.

Cliquer dessus pour voir les observations et prévisions météorologiques.

Pour changer de carte: cliquez sur les boutons verts avec une croix noire pour zoomer, sur le bouton vert avec un tiret pour effectuer un zoom arrière, ou sur les flèches vertes pour les cartes adjacentes.


METAR-TAF: